Lockhart, Louisiana
Current Conditions -  °F | °C
As of 7:53 AM on Monday 26 Jan 2015 (Local Time) from KELD Reporting Station
Clear Clear  
Wind Chill: 33°   Ceiling: Unl
Heat Index: 37°   Visibility: 10mi
Dew Point: 32°   Wind: 5mph
Humidity: 82%   Direction: 290°WNW
Pressure: 30.18"   Gusts: NA
Location:  32.9317°N, 92.5282°W
Report Text: KELD 261353Z AUTO 29004KT 10SM CLR 03/00 A3018 RMK AO2 SLP221 T00280000
Loading
Personal Weather Stations






























Interactive Weather Map New forecast layout! Learn more

10-Day Weather Forecast

Advertisements
Track Severe Weather on mobile